Time;durP1;ratioP1;P1;durP2;ratioP2;P2;SDS_P1;SDS_P2;PMS_P1;PMS_P2;Temp;Humidity;BMP_temperature;BMP_pressure;BME280_temperature;BME280_humidity;BME280_pressure;Samples;Min_cycle;Max_cycle;Signal;HPM_P1;HPM_P2
2021/10/27 00:00:06;;;;;;;8.10;3.70;;;;;;;;;;5017225;28;20312;-63
2021/10/27 00:02:31;;;;;;;9.67;3.27;;;;;;;;;;5013567;28;20609;-67
2021/10/27 00:04:56;;;;;;;7.23;3.87;;;;;;;;;;5006039;28;20417;-66
2021/10/27 00:07:23;;;;;;;9.30;3.40;;;;;;;;;;5024242;28;20227;-66
2021/10/27 00:09:49;;;;;;;9.03;3.40;;;;;;;;;;5027909;28;20251;-65
2021/10/27 00:12:15;;;;;;;5.90;3.00;;;;;;;;;;5027090;28;20412;-66
2021/10/27 00:14:41;;;;;;;9.13;3.60;;;;;;;;;;5022279;28;20159;-67
2021/10/27 00:17:06;;;;;;;8.40;3.80;;;;;;;;;;5018375;28;20894;-65
2021/10/27 00:19:32;;;;;;;6.60;3.20;;;;;;;;;;5016290;28;20159;-68
2021/10/27 00:21:57;;;;;;;7.53;2.83;;;;;;;;;;5025454;28;20281;-63
2021/10/27 00:24:22;;;;;;;7.10;3.07;;;;;;;;;;5030243;28;20166;-65
2021/10/27 00:26:48;;;;;;;5.80;3.03;;;;;;;;;;5017076;28;20245;-65
2021/10/27 00:29:13;;;;;;;11.87;3.77;;;;;;;;;;5015886;28;20190;-67
2021/10/27 00:31:38;;;;;;;6.10;3.10;;;;;;;;;;5028011;28;20169;-67
2021/10/27 00:34:04;;;;;;;6.40;3.10;;;;;;;;;;5012064;28;20168;-68
2021/10/27 00:36:29;;;;;;;7.10;2.90;;;;;;;;;;5011594;28;20227;-66
2021/10/27 00:38:55;;;;;;;5.87;3.07;;;;;;;;;;5012532;28;20268;-65
2021/10/27 00:41:20;;;;;;;7.40;3.10;;;;;;;;;;5023684;28;20170;-64
2021/10/27 00:43:45;;;;;;;4.70;2.50;;;;;;;;;;5025968;28;20681;-66
2021/10/27 00:46:18;;;;;;;6.73;3.40;;;;;;;;;;5011731;28;20236;-69
2021/10/27 00:48:43;;;;;;;6.40;3.27;;;;;;;;;;5015424;28;20205;-65
2021/10/27 00:51:08;;;;;;;9.40;3.17;;;;;;;;;;5011346;28;20409;-67
2021/10/27 00:53:34;;;;;;;7.43;2.90;;;;;;;;;;5024272;28;20177;-64
2021/10/27 00:56:00;;;;;;;8.43;3.57;;;;;;;;;;5013154;28;20155;-67
2021/10/27 00:58:26;;;;;;;9.00;3.17;;;;;;;;;;5026080;28;20177;-64
2021/10/27 01:00:51;;;;;;;7.80;3.27;;;;;;;;;;5011561;28;20776;-67
2021/10/27 01:03:16;;;;;;;5.77;2.87;;;;;;;;;;5011779;28;20175;-67
2021/10/27 01:05:42;;;;;;;9.47;3.40;;;;;;;;;;5025319;28;20257;-67
2021/10/27 01:08:08;;;;;;;5.90;2.80;;;;;;;;;;5011340;28;20421;-66
2021/10/27 01:10:33;;;;;;;12.40;3.20;;;;;;;;;;5014826;28;20408;-67
2021/10/27 01:12:58;;;;;;;5.90;2.90;;;;;;;;;;5021657;28;20269;-67
2021/10/27 01:15:24;;;;;;;6.40;2.83;;;;;;;;;;5029077;28;20162;-69
2021/10/27 01:17:49;;;;;;;7.00;2.77;;;;;;;;;;5013862;28;20699;-66
2021/10/27 01:20:14;;;;;;;5.93;2.97;;;;;;;;;;5019718;28;20628;-67
2021/10/27 01:22:40;;;;;;;5.40;2.37;;;;;;;;;;5026850;28;20166;-63
2021/10/27 01:25:07;;;;;;;6.67;3.97;;;;;;;;;;5025404;28;20170;-64
2021/10/27 01:27:32;;;;;;;7.40;2.80;;;;;;;;;;5010832;28;20173;-64
2021/10/27 01:29:58;;;;;;;9.70;2.90;;;;;;;;;;5010662;28;20646;-61
2021/10/27 01:32:27;;;;;;;6.13;3.00;;;;;;;;;;5022174;28;20158;-66
2021/10/27 01:34:53;;;;;;;6.83;2.50;;;;;;;;;;5026892;28;20206;-66
2021/10/27 01:37:19;;;;;;;9.80;3.40;;;;;;;;;;5017410;28;20590;-67
2021/10/27 01:39:45;;;;;;;10.00;2.73;;;;;;;;;;5021196;28;20625;-65
2021/10/27 01:42:10;;;;;;;15.53;4.00;;;;;;;;;;5010606;28;20165;-66
2021/10/27 01:44:35;;;;;;;5.93;3.13;;;;;;;;;;5010751;28;20827;-64
2021/10/27 01:47:01;;;;;;;7.50;2.57;;;;;;;;;;5010817;28;20201;-61
2021/10/27 01:49:26;;;;;;;7.17;3.43;;;;;;;;;;5010364;28;20198;-65
2021/10/27 01:51:52;;;;;;;9.13;3.57;;;;;;;;;;5010212;28;20162;-66
2021/10/27 01:54:18;;;;;;;23.23;5.50;;;;;;;;;;5015802;28;20216;-62
2021/10/27 01:56:43;;;;;;;8.13;4.23;;;;;;;;;;5024375;28;20437;-66
2021/10/27 01:59:08;;;;;;;6.00;3.57;;;;;;;;;;5016438;28;20178;-63
2021/10/27 02:01:33;;;;;;;8.70;3.17;;;;;;;;;;5014994;28;20213;-63
2021/10/27 02:03:59;;;;;;;7.20;3.30;;;;;;;;;;5020163;28;20169;-66
2021/10/27 02:06:24;;;;;;;7.77;3.40;;;;;;;;;;5027591;28;20678;-65
2021/10/27 02:08:49;;;;;;;8.03;3.60;;;;;;;;;;5029224;28;20212;-62
2021/10/27 02:11:15;;;;;;;11.83;3.57;;;;;;;;;;5015046;28;20178;-68
2021/10/27 02:13:40;;;;;;;6.50;3.20;;;;;;;;;;5022348;28;20189;-62
2021/10/27 02:16:06;;;;;;;18.00;4.60;;;;;;;;;;5018875;28;20232;-61
2021/10/27 02:18:31;;;;;;;9.60;3.83;;;;;;;;;;5029043;28;20165;-65
2021/10/27 02:20:56;;;;;;;8.93;3.63;;;;;;;;;;5012190;28;20253;-67
2021/10/27 02:23:22;;;;;;;8.13;4.37;;;;;;;;;;5009644;28;20637;-66
2021/10/27 02:25:47;;;;;;;5.03;2.77;;;;;;;;;;5016900;28;20174;-65
2021/10/27 02:28:12;;;;;;;7.30;3.13;;;;;;;;;;5022498;28;20209;-68
2021/10/27 02:30:38;;;;;;;8.43;3.00;;;;;;;;;;5027422;28;20253;-66
2021/10/27 02:33:03;;;;;;;11.80;4.00;;;;;;;;;;5014857;28;20165;-68
2021/10/27 02:35:29;;;;;;;5.63;3.47;;;;;;;;;;5015416;28;20162;-68
2021/10/27 02:37:54;;;;;;;6.73;3.50;;;;;;;;;;5029681;28;20232;-68
2021/10/27 02:40:20;;;;;;;6.30;3.57;;;;;;;;;;5030812;28;20245;-66
2021/10/27 02:42:45;;;;;;;7.43;3.60;;;;;;;;;;5031702;28;20158;-68
2021/10/27 02:45:11;;;;;;;8.00;3.43;;;;;;;;;;5031165;28;20173;-66
2021/10/27 02:47:38;;;;;;;8.03;4.00;;;;;;;;;;5031341;28;20165;-67
2021/10/27 02:50:03;;;;;;;5.70;3.20;;;;;;;;;;5031521;28;20204;-68
2021/10/27 02:52:29;;;;;;;6.00;3.37;;;;;;;;;;5030962;28;20838;-67
2021/10/27 02:54:54;;;;;;;11.50;4.00;;;;;;;;;;5015026;28;20844;-66
2021/10/27 02:57:19;;;;;;;5.50;3.00;;;;;;;;;;5015641;28;20163;-67
2021/10/27 02:59:45;;;;;;;16.87;4.40;;;;;;;;;;5024923;28;20175;-67
2021/10/27 03:02:10;;;;;;;7.93;3.33;;;;;;;;;;5018006;28;20165;-66
2021/10/27 03:04:35;;;;;;;11.03;3.60;;;;;;;;;;5018456;28;20172;-65
2021/10/27 03:07:01;;;;;;;13.70;3.53;;;;;;;;;;5016483;28;20162;-66
2021/10/27 03:09:26;;;;;;;9.13;3.47;;;;;;;;;;5012551;28;20209;-64
2021/10/27 03:11:53;;;;;;;8.70;3.10;;;;;;;;;;5030822;28;20181;-67
2021/10/27 03:14:18;;;;;;;7.43;3.10;;;;;;;;;;5031304;28;20166;-69
2021/10/27 03:16:44;;;;;;;6.97;3.30;;;;;;;;;;5031272;28;20420;-67
2021/10/27 03:19:09;;;;;;;8.17;3.97;;;;;;;;;;5015431;28;20165;-69
2021/10/27 03:21:34;;;;;;;10.60;3.70;;;;;;;;;;5023107;28;20194;-67
2021/10/27 03:24:00;;;;;;;6.77;3.20;;;;;;;;;;5031086;28;20162;-68
2021/10/27 03:26:26;;;;;;;8.67;3.60;;;;;;;;;;5030429;28;20162;-65
2021/10/27 03:28:51;;;;;;;6.80;3.60;;;;;;;;;;5013629;28;20530;-68
2021/10/27 03:31:16;;;;;;;16.50;3.70;;;;;;;;;;5011347;28;20147;-68
2021/10/27 03:33:42;;;;;;;6.87;2.90;;;;;;;;;;5011177;28;20566;-67
2021/10/27 03:36:07;;;;;;;8.13;3.20;;;;;;;;;;5014007;28;20254;-68
2021/10/27 03:38:33;;;;;;;16.50;3.70;;;;;;;;;;5030524;28;20221;-67
2021/10/27 03:40:58;;;;;;;7.63;3.63;;;;;;;;;;5021916;28;20163;-67
2021/10/27 03:43:23;;;;;;;5.90;3.00;;;;;;;;;;5011180;28;20154;-68
2021/10/27 03:45:48;;;;;;;5.00;3.00;;;;;;;;;;5011019;28;20155;-69
2021/10/27 03:48:14;;;;;;;13.63;4.40;;;;;;;;;;5010784;28;20212;-69
2021/10/27 03:50:40;;;;;;;13.50;3.27;;;;;;;;;;5010980;28;20165;-67
2021/10/27 03:53:05;;;;;;;8.67;2.83;;;;;;;;;;5017091;28;20150;-64
2021/10/27 03:55:31;;;;;;;9.20;3.10;;;;;;;;;;5018381;28;21009;-67
2021/10/27 03:57:58;;;;;;;11.60;3.27;;;;;;;;;;5017199;28;20208;-69
2021/10/27 04:00:24;;;;;;;8.40;2.83;;;;;;;;;;5022170;28;20207;-67
2021/10/27 04:02:50;;;;;;;7.87;3.50;;;;;;;;;;5037352;28;20392;-68
2021/10/27 04:05:15;;;;;;;13.00;4.20;;;;;;;;;;5037062;28;20886;-68
2021/10/27 04:07:41;;;;;;;10.53;3.07;;;;;;;;;;5029823;28;20174;-67
2021/10/27 04:10:07;;;;;;;6.00;3.37;;;;;;;;;;5017081;28;20169;-66
2021/10/27 04:12:34;;;;;;;8.73;3.40;;;;;;;;;;5017438;28;20156;-69
2021/10/27 04:14:59;;;;;;;8.07;3.03;;;;;;;;;;5034705;28;20451;-66
2021/10/27 04:17:24;;;;;;;9.10;3.50;;;;;;;;;;5037072;28;20420;-66
2021/10/27 04:19:50;;;;;;;8.80;3.50;;;;;;;;;;5034734;28;20149;-66
2021/10/27 04:22:15;;;;;;;10.23;2.97;;;;;;;;;;5016835;28;20166;-67
2021/10/27 04:24:41;;;;;;;5.87;3.00;;;;;;;;;;5017414;28;20151;-64
2021/10/27 04:27:06;;;;;;;10.63;4.07;;;;;;;;;;5017143;28;20166;-64
2021/10/27 04:29:31;;;;;;;8.50;4.30;;;;;;;;;;5018028;28;20194;-63
2021/10/27 04:31:57;;;;;;;8.10;3.17;;;;;;;;;;5018150;28;20616;-64
2021/10/27 04:34:22;;;;;;;6.47;3.10;;;;;;;;;;5035328;28;20157;-67
2021/10/27 04:36:47;;;;;;;7.80;3.53;;;;;;;;;;5028692;28;20633;-66
2021/10/27 04:39:13;;;;;;;8.13;3.50;;;;;;;;;;5016549;28;20248;-65
2021/10/27 04:41:38;;;;;;;10.53;3.80;;;;;;;;;;5018302;28;20167;-64
2021/10/27 04:44:04;;;;;;;10.60;3.77;;;;;;;;;;5017987;28;20174;-64
2021/10/27 04:46:29;;;;;;;11.60;5.17;;;;;;;;;;5031044;28;20165;-65
2021/10/27 04:48:54;;;;;;;11.57;4.40;;;;;;;;;;5036268;28;20193;-65
2021/10/27 04:51:20;;;;;;;11.20;4.27;;;;;;;;;;5030320;28;20229;-65
2021/10/27 04:53:45;;;;;;;15.03;5.10;;;;;;;;;;5016618;28;20167;-64
2021/10/27 04:56:10;;;;;;;11.10;3.47;;;;;;;;;;5016650;28;20229;-66
2021/10/27 04:58:36;;;;;;;19.43;5.13;;;;;;;;;;5030650;28;20166;-65
2021/10/27 05:01:01;;;;;;;52.93;7.70;;;;;;;;;;5036349;28;20249;-66
2021/10/27 05:03:26;;;;;;;6.10;3.40;;;;;;;;;;5031936;28;20611;-65
2021/10/27 05:05:56;;;;;;;12.03;5.70;;;;;;;;;;5017458;28;20245;-63
2021/10/27 05:08:24;;;;;;;10.50;6.10;;;;;;;;;;5013751;28;20195;-65
2021/10/27 05:10:51;;;;;;;10.33;4.70;;;;;;;;;;5013211;28;20559;-64
2021/10/27 05:13:18;;;;;;;13.40;5.07;;;;;;;;;;5013654;28;20483;-64
2021/10/27 05:15:44;;;;;;;8.10;4.00;;;;;;;;;;5014482;28;20931;-65
2021/10/27 05:18:09;;;;;;;10.80;4.43;;;;;;;;;;5024677;28;20406;-65
2021/10/27 05:20:35;;;;;;;13.23;4.07;;;;;;;;;;5013225;28;20182;-65
2021/10/27 05:23:00;;;;;;;13.07;4.60;;;;;;;;;;5013044;28;20526;-67
2021/10/27 05:25:25;;;;;;;20.43;4.33;;;;;;;;;;5012873;28;20562;-65
2021/10/27 05:27:51;;;;;;;21.47;4.93;;;;;;;;;;5012745;28;20202;-68
2021/10/27 05:30:16;;;;;;;27.97;4.93;;;;;;;;;;5013330;28;20170;-65
2021/10/27 05:32:41;;;;;;;10.67;4.20;;;;;;;;;;5018658;28;20216;-67
2021/10/27 05:35:07;;;;;;;10.17;4.07;;;;;;;;;;5032597;28;20173;-67
2021/10/27 05:37:32;;;;;;;9.63;3.77;;;;;;;;;;5018844;28;20221;-64
2021/10/27 05:39:57;;;;;;;13.10;4.93;;;;;;;;;;5032300;28;20160;-69
2021/10/27 05:42:27;;;;;;;7.07;3.17;;;;;;;;;;5032606;28;20252;-64
2021/10/27 05:44:53;;;;;;;23.93;4.40;;;;;;;;;;5032386;28;20585;-68
2021/10/27 05:47:18;;;;;;;8.60;4.37;;;;;;;;;;5031892;28;20961;-64
2021/10/27 05:50:19;;;;;;;9.63;3.50;;;;;;;;;;5031870;28;20201;-66
2021/10/27 05:55:21;;;;;;;14.00;4.00;;;;;;;;;;5020400;28;20907;-63
2021/10/27 05:57:46;;;;;;;8.97;3.93;;;;;;;;;;5012275;28;20177;-67
2021/10/27 06:00:12;;;;;;;15.20;4.40;;;;;;;;;;5012321;28;20409;-66
2021/10/27 06:02:37;;;;;;;7.13;3.50;;;;;;;;;;5012190;28;20385;-67
2021/10/27 06:05:03;;;;;;;6.63;3.13;;;;;;;;;;5020803;28;20167;-66
2021/10/27 06:07:31;;;;;;;33.27;22.47;;;;;;;;;;5012724;28;20175;-64
2021/10/27 06:09:56;;;;;;;15.60;3.90;;;;;;;;;;5012036;28;20186;-67
2021/10/27 06:12:22;;;;;;;26.90;5.20;;;;;;;;;;5012481;28;20546;-64
2021/10/27 06:14:48;;;;;;;9.93;3.63;;;;;;;;;;5022754;28;20625;-64
2021/10/27 06:17:13;;;;;;;8.30;3.63;;;;;;;;;;5032210;28;20415;-64
2021/10/27 06:19:39;;;;;;;16.87;7.03;;;;;;;;;;5031171;28;20906;-66
2021/10/27 06:22:05;;;;;;;9.13;4.03;;;;;;;;;;5022100;28;20418;-65
2021/10/27 06:24:30;;;;;;;9.17;3.57;;;;;;;;;;5011896;28;20170;-64
2021/10/27 06:26:56;;;;;;;10.27;3.13;;;;;;;;;;5012649;28;20163;-64
2021/10/27 06:29:28;;;;;;;8.10;3.00;;;;;;;;;;5012510;28;20201;-65
2021/10/27 06:32:07;;;;;;;9.53;4.20;;;;;;;;;;5020427;28;20477;-66
2021/10/27 06:34:36;;;;;;;63.80;11.00;;;;;;;;;;5015182;28;20405;-66
2021/10/27 06:37:23;;;;;;;7.97;3.20;;;;;;;;;;5011201;28;20541;-65
2021/10/27 06:48:00;;;;;;;12.30;3.60;;;;;;;;;;5011677;28;20825;-64
2021/10/27 06:50:25;;;;;;;6.63;2.77;;;;;;;;;;5015805;28;20421;-65
2021/10/27 06:52:51;;;;;;;5.53;2.23;;;;;;;;;;5012544;28;20169;-64
2021/10/27 06:55:16;;;;;;;13.70;4.27;;;;;;;;;;5011323;28;20173;-63
2021/10/27 06:57:42;;;;;;;8.90;4.60;;;;;;;;;;5011501;28;20158;-66
2021/10/27 07:00:20;;;;;;;20.20;10.63;;;;;;;;;;5012186;28;20227;-65
2021/10/27 07:15:59;;;;;;;8.60;3.47;;;;;;;;;;5012313;28;20491;-66
2021/10/27 07:18:25;;;;;;;13.67;4.47;;;;;;;;;;5011240;28;20410;-66
2021/10/27 07:20:51;;;;;;;5.73;2.80;;;;;;;;;;5011715;28;20440;-67
2021/10/27 07:23:16;;;;;;;6.67;2.70;;;;;;;;;;5025276;28;20543;-64
2021/10/27 07:25:41;;;;;;;5.87;3.30;;;;;;;;;;5030200;28;20169;-68
2021/10/27 07:28:07;;;;;;;8.13;3.20;;;;;;;;;;5030331;28;20185;-67
2021/10/27 07:30:32;;;;;;;5.93;2.90;;;;;;;;;;5030362;28;20224;-67
2021/10/27 07:32:58;;;;;;;16.40;3.37;;;;;;;;;;5030289;28;20573;-67
2021/10/27 07:35:38;;;;;;;9.50;2.97;;;;;;;;;;5030286;28;20174;-64
2021/10/27 07:40:48;;;;;;;10.67;3.80;;;;;;;;;;5013771;28;20408;-64
2021/10/27 07:43:17;;;;;;;6.30;2.80;;;;;;;;;;5013679;28;20406;-64
2021/10/27 07:45:44;;;;;;;5.60;2.47;;;;;;;;;;5023794;28;20158;-70
2021/10/27 07:48:09;;;;;;;5.10;2.57;;;;;;;;;;5020648;28;20995;-72
2021/10/27 07:50:36;;;;;;;8.60;2.73;;;;;;;;;;5022536;28;20404;-71
2021/10/27 07:53:03;;;;;;;12.40;3.40;;;;;;;;;;5026584;28;20147;-70
2021/10/27 07:55:29;;;;;;;6.33;2.63;;;;;;;;;;5024665;28;20494;-70
2021/10/27 07:57:55;;;;;;;11.27;3.13;;;;;;;;;;5029792;28;20814;-70
2021/10/27 08:00:21;;;;;;;7.30;3.10;;;;;;;;;;5016785;28;20426;-70
2021/10/27 08:02:47;;;;;;;9.50;2.90;;;;;;;;;;5010411;28;20454;-68
2021/10/27 08:05:12;;;;;;;6.60;2.40;;;;;;;;;;5012246;28;20463;-66
2021/10/27 08:07:42;;;;;;;7.60;2.83;;;;;;;;;;5029374;28;20162;-68
2021/10/27 08:10:07;;;;;;;6.30;2.00;;;;;;;;;;5027464;28;20174;-66
2021/10/27 08:12:33;;;;;;;8.67;3.43;;;;;;;;;;5019020;28;21029;-66
2021/10/27 08:14:58;;;;;;;9.10;2.37;;;;;;;;;;5013336;28;20197;-65
2021/10/27 08:17:23;;;;;;;10.87;3.07;;;;;;;;;;5018914;28;20247;-69
2021/10/27 08:19:50;;;;;;;6.50;2.53;;;;;;;;;;5010085;28;20170;-61
2021/10/27 08:22:15;;;;;;;8.50;2.80;;;;;;;;;;5017710;28;20158;-70
2021/10/27 08:24:41;;;;;;;7.33;2.60;;;;;;;;;;5015445;28;20504;-66
2021/10/27 08:27:09;;;;;;;6.73;3.03;;;;;;;;;;5018433;28;20158;-67
2021/10/27 08:29:39;;;;;;;10.10;2.20;;;;;;;;;;5029156;28;20189;-68
2021/10/27 08:32:29;;;;;;;5.30;2.30;;;;;;;;;;5016182;28;20400;-66
2021/10/27 08:34:55;;;;;;;8.00;2.67;;;;;;;;;;5041824;28;20450;-67
2021/10/27 08:37:20;;;;;;;6.73;2.10;;;;;;;;;;5029431;28;20440;-70
2021/10/27 08:39:46;;;;;;;11.53;2.40;;;;;;;;;;5032600;28;20902;-65
2021/10/27 08:42:14;;;;;;;8.03;2.83;;;;;;;;;;5031663;28;20220;-61
2021/10/27 08:44:41;;;;;;;9.40;2.80;;;;;;;;;;5033482;28;20149;-61
2021/10/27 08:47:07;;;;;;;9.60;2.80;;;;;;;;;;5031211;28;20404;-60
2021/10/27 08:49:32;;;;;;;9.70;2.30;;;;;;;;;;5033099;28;20448;-62
2021/10/27 08:51:59;;;;;;;5.73;2.30;;;;;;;;;;5033251;28;20158;-62
2021/10/27 08:54:25;;;;;;;8.10;2.70;;;;;;;;;;5033569;28;20181;-62
2021/10/27 08:56:54;;;;;;;5.90;2.07;;;;;;;;;;5032884;28;20399;-61
2021/10/27 08:59:32;;;;;;;8.70;2.90;;;;;;;;;;5033583;28;20500;-61
2021/10/27 09:04:39;;;;;;;5.70;2.80;;;;;;;;;;5027669;28;20939;-60
2021/10/27 09:35:07;;;;;;;9.80;2.77;;;;;;;;;;5031536;28;20412;-79
2021/10/27 09:37:57;;;;;;;11.03;2.60;;;;;;;;;;5029484;28;20890;-69
2021/10/27 09:41:02;;;;;;;15.13;2.43;;;;;;;;;;5014616;28;20410;-77
2021/10/27 09:43:54;;;;;;;6.73;1.90;;;;;;;;;;5025390;28;20436;-74
2021/10/27 09:46:57;;;;;;;11.50;2.57;;;;;;;;;;5026630;28;20451;-70
2021/10/27 10:06:09;;;;;;;11.30;3.07;;;;;;;;;;5029997;28;20391;-70
2021/10/27 10:08:34;;;;;;;7.27;2.67;;;;;;;;;;5016821;28;20443;-65
2021/10/27 10:10:59;;;;;;;6.63;2.60;;;;;;;;;;5021857;28;20410;-71
2021/10/27 10:13:25;;;;;;;7.20;3.27;;;;;;;;;;5011683;28;20154;-68
2021/10/27 10:15:51;;;;;;;6.93;2.93;;;;;;;;;;5030830;28;20189;-65
2021/10/27 10:18:20;;;;;;;6.67;2.50;;;;;;;;;;5031131;28;20252;-67
2021/10/27 10:20:48;;;;;;;8.57;2.80;;;;;;;;;;5030753;28;20420;-65
2021/10/27 10:23:17;;;;;;;5.40;2.10;;;;;;;;;;5031557;28;20389;-66
2021/10/27 10:25:50;;;;;;;7.00;2.80;;;;;;;;;;5031524;28;20523;-65
2021/10/27 10:28:17;;;;;;;6.23;2.70;;;;;;;;;;5029001;28;20444;-65
2021/10/27 10:31:03;;;;;;;10.30;3.10;;;;;;;;;;5031161;28;20769;-64
2021/10/27 10:33:41;;;;;;;5.73;2.03;;;;;;;;;;5011457;28;20436;-64
2021/10/27 10:36:13;;;;;;;7.10;3.27;;;;;;;;;;5011508;28;20929;-65
2021/10/27 10:41:44;;;;;;;6.73;1.90;;;;;;;;;;5026409;28;20950;-63
2021/10/27 11:39:20;;;;;;;7.40;2.53;;;;;;;;;;5019133;28;20555;-70
2021/10/27 11:41:59;;;;;;;9.63;2.43;;;;;;;;;;5011536;28;20911;-67
2021/10/27 11:44:50;;;;;;;9.00;2.43;;;;;;;;;;5010717;28;20411;-65
2021/10/27 11:47:32;;;;;;;9.70;2.27;;;;;;;;;;5025041;28;20412;-63
2021/10/27 11:49:57;;;;;;;4.50;1.80;;;;;;;;;;5026150;28;20812;-65
2021/10/27 11:52:29;;;;;;;10.13;2.30;;;;;;;;;;5022938;28;20908;-62
2021/10/27 11:54:56;;;;;;;7.80;2.50;;;;;;;;;;5027597;28;20174;-64
2021/10/27 11:57:22;;;;;;;10.37;4.40;;;;;;;;;;5027779;28;20519;-66
2021/10/27 11:59:50;;;;;;;6.07;1.90;;;;;;;;;;5027380;28;20768;-61
2021/10/27 12:02:16;;;;;;;6.20;1.80;;;;;;;;;;5030391;28;20412;-65
2021/10/27 12:04:42;;;;;;;6.57;2.40;;;;;;;;;;5026329;28;20404;-65
2021/10/27 12:07:23;;;;;;;6.10;2.30;;;;;;;;;;5027986;28;21008;-72
2021/10/27 12:17:59;;;;;;;6.33;2.00;;;;;;;;;;5013878;28;20443;-62
2021/10/27 12:20:31;;;;;;;8.53;2.10;;;;;;;;;;5014306;28;20476;-62
2021/10/27 12:22:56;;;;;;;6.43;2.33;;;;;;;;;;5029830;28;20246;-61
2021/10/27 12:25:22;;;;;;;4.33;2.10;;;;;;;;;;5033328;28;20471;-62
2021/10/27 12:27:47;;;;;;;7.97;2.47;;;;;;;;;;5034045;28;20529;-64
2021/10/27 12:30:15;;;;;;;8.70;3.60;;;;;;;;;;5029103;28;20197;-63
2021/10/27 12:32:50;;;;;;;5.10;1.90;;;;;;;;;;5033634;28;20154;-64
2021/10/27 12:35:16;;;;;;;8.40;2.40;;;;;;;;;;5019994;28;20981;-65
2021/10/27 12:37:46;;;;;;;5.40;2.40;;;;;;;;;;5013850;28;20449;-62
2021/10/27 12:40:17;;;;;;;6.60;3.83;;;;;;;;;;5015725;28;20621;-63
2021/10/27 12:42:43;;;;;;;6.70;2.83;;;;;;;;;;5013835;28;20381;-63
2021/10/27 12:45:08;;;;;;;5.73;2.50;;;;;;;;;;5026374;28;20414;-63
2021/10/27 12:47:36;;;;;;;10.60;2.50;;;;;;;;;;5027505;28;20184;-62
2021/10/27 12:50:06;;;;;;;5.93;2.77;;;;;;;;;;5030088;28;20689;-66
2021/10/27 12:52:33;;;;;;;8.33;3.10;;;;;;;;;;5033483;28;20380;-66
2021/10/27 12:55:24;;;;;;;6.83;2.40;;;;;;;;;;5028831;28;20529;-68
2021/10/27 12:57:53;;;;;;;4.40;1.90;;;;;;;;;;5032635;28;20513;-65
2021/10/27 13:00:23;;;;;;;5.93;2.50;;;;;;;;;;5028655;28;20448;-63
2021/10/27 13:03:10;;;;;;;11.10;2.70;;;;;;;;;;5032294;28;20396;-66
2021/10/27 13:05:42;;;;;;;6.30;2.67;;;;;;;;;;5020310;28;20459;-62
2021/10/27 13:08:22;;;;;;;6.83;2.37;;;;;;;;;;5015807;28;20462;-67
2021/10/27 13:11:01;;;;;;;12.37;3.43;;;;;;;;;;5032964;28;20453;-67
2021/10/27 13:18:57;;;;;;;7.73;2.70;;;;;;;;;;5032791;28;20377;-64
2021/10/27 13:22:16;;;;;;;10.17;4.70;;;;;;;;;;5032377;28;20403;-65
2021/10/27 13:30:03;;;;;;;7.60;2.40;;;;;;;;;;5023742;28;20201;-63
2021/10/27 13:32:24;;;;;;;5.53;2.70;;;;;;;;;;5031247;28;20420;-64
2021/10/27 13:34:49;;;;;;;5.80;2.20;;;;;;;;;;5032098;28;20393;-65
2021/10/27 13:37:18;;;;;;;7.03;3.60;;;;;;;;;;5032393;28;20445;-62
2021/10/27 13:39:43;;;;;;;7.50;2.37;;;;;;;;;;5032258;28;20146;-62
2021/10/27 13:42:15;;;;;;;7.77;3.83;;;;;;;;;;5028443;28;20401;-65
2021/10/27 13:44:55;;;;;;;9.53;3.13;;;;;;;;;;5027535;28;20240;-67
2021/10/27 13:47:44;;;;;;;5.30;2.80;;;;;;;;;;5031351;28;20404;-65
2021/10/27 15:21:32;;;;;;;11.50;5.03;;;;;;;;;;5018481;28;20726;-65
2021/10/27 15:29:17;;;;;;;8.73;4.27;;;;;;;;;;5010302;28;20440;-64
2021/10/27 15:52:50;;;;;;;21.43;9.53;;;;;;;;;;5018736;28;20421;-72
2021/10/27 15:55:15;;;;;;;26.77;10.43;;;;;;;;;;5021825;28;20409;-65
2021/10/27 15:57:40;;;;;;;14.47;8.20;;;;;;;;;;5022321;28;20162;-67
2021/10/27 16:00:06;;;;;;;24.50;11.50;;;;;;;;;;5022838;28;20185;-65
2021/10/27 16:02:32;;;;;;;17.80;10.90;;;;;;;;;;5010756;28;20188;-64
2021/10/27 16:04:57;;;;;;;17.93;10.37;;;;;;;;;;5010030;28;20154;-64
2021/10/27 16:07:24;;;;;;;20.00;8.30;;;;;;;;;;5010703;28;20232;-65
2021/10/27 16:09:51;;;;;;;14.83;8.20;;;;;;;;;;5017203;28;20980;-69
2021/10/27 16:12:16;;;;;;;19.70;11.10;;;;;;;;;;5023068;28;20430;-68
2021/10/27 16:14:43;;;;;;;23.43;9.93;;;;;;;;;;5010051;28;20931;-65
2021/10/27 16:17:09;;;;;;;24.83;10.10;;;;;;;;;;5010347;28;20617;-74
2021/10/27 16:19:34;;;;;;;18.10;10.47;;;;;;;;;;5010783;28;20432;-63
2021/10/27 16:22:00;;;;;;;15.00;7.73;;;;;;;;;;5024090;28;20162;-71
2021/10/27 16:24:25;;;;;;;15.10;8.37;;;;;;;;;;5022736;28;20249;-69
2021/10/27 16:26:54;;;;;;;19.00;10.27;;;;;;;;;;5010809;28;20171;-71
2021/10/27 16:29:20;;;;;;;19.00;9.57;;;;;;;;;;5016392;28;20194;-64
2021/10/27 16:31:46;;;;;;;21.03;9.80;;;;;;;;;;5020575;28;20472;-64
2021/10/27 16:34:13;;;;;;;14.40;8.27;;;;;;;;;;5009817;28;20241;-72
2021/10/27 16:36:38;;;;;;;13.47;7.83;;;;;;;;;;5016992;28;20166;-64
2021/10/27 16:39:04;;;;;;;17.23;8.97;;;;;;;;;;5020930;28;20847;-64
2021/10/27 16:41:30;;;;;;;15.57;8.90;;;;;;;;;;5022157;28;20535;-65
2021/10/27 16:43:55;;;;;;;17.30;9.50;;;;;;;;;;5029685;28;20381;-70
2021/10/27 16:46:21;;;;;;;15.27;8.27;;;;;;;;;;5024828;28;20168;-63
2021/10/27 16:48:46;;;;;;;16.57;8.20;;;;;;;;;;5029875;28;20221;-64
2021/10/27 16:51:11;;;;;;;16.47;8.70;;;;;;;;;;5025381;28;20162;-66
2021/10/27 16:53:37;;;;;;;21.20;9.60;;;;;;;;;;5021871;28;20166;-66
2021/10/27 16:56:04;;;;;;;18.60;9.10;;;;;;;;;;5019337;28;20154;-66
2021/10/27 16:58:30;;;;;;;17.37;9.77;;;;;;;;;;5028502;28;20158;-71
2021/10/27 17:00:55;;;;;;;32.37;14.00;;;;;;;;;;5020242;28;20412;-65
2021/10/27 17:03:21;;;;;;;20.00;11.07;;;;;;;;;;5030946;28;20416;-63
2021/10/27 17:05:47;;;;;;;24.13;11.53;;;;;;;;;;5026576;28;20617;-62
2021/10/27 17:08:16;;;;;;;20.40;11.40;;;;;;;;;;5023265;28;20173;-64
2021/10/27 17:10:45;;;;;;;22.90;11.07;;;;;;;;;;5024534;28;20162;-66
2021/10/27 17:13:11;;;;;;;22.93;11.93;;;;;;;;;;5032550;28;20412;-71
2021/10/27 17:15:36;;;;;;;20.00;12.40;;;;;;;;;;5025250;28;20775;-61
2021/10/27 17:18:02;;;;;;;23.87;11.00;;;;;;;;;;5015944;28;20522;-63
2021/10/27 17:20:27;;;;;;;20.27;11.20;;;;;;;;;;5027417;28;20176;-63
2021/10/27 17:22:59;;;;;;;22.27;11.80;;;;;;;;;;5032670;28;20165;-64
2021/10/27 17:25:24;;;;;;;21.03;12.07;;;;;;;;;;5032588;28;20197;-70
2021/10/27 17:27:50;;;;;;;17.60;10.70;;;;;;;;;;5029837;28;20393;-67
2021/10/27 17:30:16;;;;;;;16.60;9.83;;;;;;;;;;5032336;28;20193;-71
2021/10/27 17:32:41;;;;;;;21.13;10.80;;;;;;;;;;5025541;28;20264;-63
2021/10/27 17:35:14;;;;;;;18.83;10.67;;;;;;;;;;5012777;28;20863;-64
2021/10/27 17:37:40;;;;;;;16.23;9.87;;;;;;;;;;5021956;28;20213;-63
2021/10/27 17:40:13;;;;;;;14.20;9.90;;;;;;;;;;5017484;28;20401;-65
2021/10/27 17:42:42;;;;;;;21.50;9.87;;;;;;;;;;5020118;28;20400;-63
2021/10/27 17:45:08;;;;;;;19.07;9.30;;;;;;;;;;5027451;28;20539;-65
2021/10/27 17:47:40;;;;;;;20.87;11.73;;;;;;;;;;5031697;28;20502;-64
2021/10/27 17:50:22;;;;;;;15.77;10.40;;;;;;;;;;5025825;28;20460;-66
2021/10/27 17:57:25;;;;;;;21.03;10.23;;;;;;;;;;5024557;28;20400;-65
2021/10/27 17:58:38;;;;;;;16.87;9.93;;;;;;;;;;5026920;28;20870;-62
2021/10/27 18:01:04;;;;;;;14.83;8.87;;;;;;;;;;5024947;28;20456;-67
2021/10/27 18:03:32;;;;;;;15.07;8.63;;;;;;;;;;5012926;28;20390;-65
2021/10/27 18:05:58;;;;;;;17.40;9.30;;;;;;;;;;5030779;28;20409;-65
2021/10/27 18:08:24;;;;;;;20.60;8.90;;;;;;;;;;5030923;28;20440;-65
2021/10/27 18:10:54;;;;;;;28.90;9.50;;;;;;;;;;5030882;28;20474;-62
2021/10/27 18:13:23;;;;;;;15.40;9.20;;;;;;;;;;5029745;28;20552;-63
2021/10/27 18:15:51;;;;;;;23.93;12.80;;;;;;;;;;5031551;28;20470;-69
2021/10/27 18:18:24;;;;;;;22.87;11.63;;;;;;;;;;5015273;28;20413;-65
2021/10/27 18:20:50;;;;;;;18.27;10.80;;;;;;;;;;5011522;28;20476;-69
2021/10/27 18:23:29;;;;;;;25.47;13.00;;;;;;;;;;5011460;28;20481;-75
2021/10/27 18:28:38;;;;;;;26.33;13.57;;;;;;;;;;5022682;28;20539;-73
2021/10/27 18:36:37;;;;;;;23.17;13.43;;;;;;;;;;5030711;28;20758;-71
2021/10/27 18:39:23;;;;;;;23.43;15.50;;;;;;;;;;5030589;28;20397;-75
2021/10/27 18:41:57;;;;;;;25.53;16.70;;;;;;;;;;5030717;28;20381;-67
2021/10/27 18:44:22;;;;;;;26.07;16.67;;;;;;;;;;5019795;28;20475;-64
2021/10/27 18:46:49;;;;;;;25.10;16.57;;;;;;;;;;5018467;28;20480;-68
2021/10/27 18:49:15;;;;;;;25.53;15.83;;;;;;;;;;5015442;28;20266;-64
2021/10/27 18:51:52;;;;;;;33.20;17.27;;;;;;;;;;5015311;28;20434;-64
2021/10/27 18:54:32;;;;;;;28.17;16.17;;;;;;;;;;5019018;28;20411;-66
2021/10/27 18:59:37;;;;;;;25.90;15.10;;;;;;;;;;5029130;28;20424;-66
2021/10/27 19:02:19;;;;;;;25.60;16.13;;;;;;;;;;5025393;28;20185;-78
2021/10/27 19:13:03;;;;;;;30.70;20.40;;;;;;;;;;5020241;28;20447;-63
2021/10/27 19:15:37;;;;;;;34.20;24.00;;;;;;;;;;5028324;28;20458;-64
2021/10/27 19:18:02;;;;;;;35.90;24.43;;;;;;;;;;5015072;28;20400;-64
2021/10/27 19:20:28;;;;;;;33.90;23.33;;;;;;;;;;5030552;28;20396;-63
2021/10/27 19:22:53;;;;;;;35.33;22.40;;;;;;;;;;5029557;28;20161;-65
2021/10/27 19:25:23;;;;;;;29.40;20.00;;;;;;;;;;5016456;28;20143;-66
2021/10/27 19:27:59;;;;;;;27.47;18.50;;;;;;;;;;5010960;28;20194;-64
2021/10/27 19:33:16;;;;;;;27.13;16.57;;;;;;;;;;5011511;28;20405;-66